createdAt,value
2023-02-06T00:01:30.402Z,98409.97
2023-02-06T00:03:58.126Z,98407.84
2023-02-06T00:06:25.681Z,98411.78
2023-02-06T00:08:53.452Z,98408.56
2023-02-06T00:11:22.149Z,98408.78
2023-02-06T00:13:50.488Z,98400.84
2023-02-06T00:16:22.818Z,98413.47
2023-02-06T00:18:51.389Z,98409.81
2023-02-06T00:21:22.130Z,98408.22
2023-02-06T00:23:50.184Z,98410.09
2023-02-06T00:26:18.597Z,98410.38
2023-02-06T00:28:47.436Z,98403.19
2023-02-06T00:31:15.883Z,98400.53
2023-02-06T00:33:43.832Z,98403.69
2023-02-06T00:36:11.345Z,98405.84
2023-02-06T00:38:38.981Z,98408.78
2023-02-06T00:41:08.242Z,98414.63
2023-02-06T00:43:35.931Z,98414.06
2023-02-06T00:46:03.912Z,98406.84
2023-02-06T00:48:31.675Z,98409.22
2023-02-06T00:50:59.238Z,98406.28
2023-02-06T00:53:26.912Z,98403.13
2023-02-06T00:55:54.436Z,98407.38
2023-02-06T00:58:22.846Z,98410.53
2023-02-06T01:00:50.514Z,98409.47
2023-02-06T01:03:18.133Z,98409.47
2023-02-06T01:05:45.833Z,98408.66
2023-02-06T01:08:13.423Z,98413.13
2023-02-06T01:10:42.862Z,98415.22
2023-02-06T01:13:11.461Z,98418.38
2023-02-06T01:15:41.768Z,98414.16
2023-02-06T01:18:09.366Z,98410.91
2023-02-06T01:20:37.229Z,98407.47
2023-02-06T01:23:04.839Z,98406.66
2023-02-06T01:25:32.483Z,98410.91
2023-02-06T01:28:00.152Z,98413.28
2023-02-06T01:30:28.004Z,98413.06
2023-02-06T01:32:57.228Z,98414.34
2023-02-06T01:35:24.938Z,98411.69
2023-02-06T01:37:52.434Z,98403.06
2023-02-06T01:40:20.033Z,98415.72
2023-02-06T01:42:49.993Z,98407.53
2023-02-06T01:45:26.843Z,98410.28
2023-02-06T01:48:06.380Z,98416.09
2023-02-06T01:50:36.440Z,98415.66
2023-02-06T01:53:06.832Z,98423.63
2023-02-06T01:55:38.737Z,98410.91
2023-02-06T01:58:08.082Z,98433.50
2023-02-06T02:00:36.114Z,98430.31
2023-02-06T02:03:04.959Z,98432.47
2023-02-06T02:05:33.797Z,98442.09
2023-02-06T02:08:08.729Z,98441.56
2023-02-06T02:10:36.658Z,98427.34
2023-02-06T02:13:04.195Z,98426.66
2023-02-06T02:15:48.562Z,98437.69
2023-02-06T02:18:30.632Z,98432.19
2023-02-06T02:21:00.926Z,98429.88
2023-02-06T02:23:46.083Z,98437.22
2023-02-06T02:26:37.966Z,98431.09
2023-02-06T02:29:17.411Z,98427.97
2023-02-06T02:32:00.224Z,98427.63
2023-02-06T02:34:55.632Z,98430.28
2023-02-06T02:37:35.193Z,98431.09
2023-02-06T02:40:21.925Z,98425.28
2023-02-06T02:43:19.689Z,98427.38
2023-02-06T02:46:21.095Z,98436.13
2023-02-06T02:48:55.122Z,98437.28
2023-02-06T02:51:23.466Z,98441.84
2023-02-06T02:53:51.137Z,98435.25
2023-02-06T02:56:22.215Z,98442.38
2023-02-06T02:59:04.184Z,98444.22
2023-02-06T03:01:37.435Z,98440.25
2023-02-06T03:04:16.655Z,98451.72
2023-02-06T03:06:59.949Z,98450.34
2023-02-06T03:09:31.223Z,98449.81
2023-02-06T03:12:20.429Z,98449.72
2023-02-06T03:14:58.521Z,98450.56
2023-02-06T03:17:38.390Z,98447.34
2023-02-06T03:20:09.210Z,98448.97
2023-02-06T03:22:37.663Z,98443.22
2023-02-06T03:25:12.647Z,98456.66
2023-02-06T03:27:43.738Z,98458.53
2023-02-06T03:30:14.553Z,98457.47
2023-02-06T03:32:46.597Z,98458.78
2023-02-06T03:35:26.271Z,98462.47
2023-02-06T03:37:54.360Z,98464.09
2023-02-06T03:40:22.246Z,98457.22
2023-02-06T03:42:53.920Z,98462.50
2023-02-06T03:45:36.176Z,98462.50
2023-02-06T03:48:09.555Z,98457.19
2023-02-06T03:50:40.537Z,98456.13
2023-02-06T03:53:10.059Z,98455.59
2023-02-06T03:55:40.116Z,98460.06
2023-02-06T03:58:12.441Z,98461.94
2023-02-06T04:00:43.399Z,98459.56
2023-02-06T04:03:13.319Z,98461.97
2023-02-06T04:05:41.419Z,98456.94
2023-02-06T04:08:09.365Z,98467.09
2023-02-06T04:10:36.881Z,98462.06
2023-02-06T04:13:04.426Z,98458.59
2023-02-06T04:15:32.040Z,98468.72
2023-02-06T04:18:01.531Z,98450.13
2023-02-06T04:20:30.242Z,98460.97
2023-02-06T04:22:59.181Z,98463.91
2023-02-06T04:25:26.872Z,98460.97
2023-02-06T04:27:54.590Z,98463.91
2023-02-06T04:30:22.283Z,98461.25
2023-02-06T04:32:49.817Z,98468.44
2023-02-06T04:35:17.416Z,98476.94
2023-02-06T04:37:44.881Z,98471.34
2023-02-06T04:40:12.944Z,98468.66
2023-02-06T04:42:40.438Z,98462.25
2023-02-06T04:45:08.471Z,98471.63
2023-02-06T04:47:36.074Z,98476.56
2023-02-06T04:50:04.698Z,98479.50
2023-02-06T04:52:32.629Z,98476.56
2023-02-06T04:55:00.164Z,98484.25
2023-02-06T04:57:27.780Z,98478.41
2023-02-06T04:59:55.306Z,98485.56
2023-02-06T05:02:22.902Z,98485.06
2023-02-06T05:04:50.493Z,98488.47
2023-02-06T05:07:18.259Z,98492.16
2023-02-06T05:09:46.740Z,98490.28
2023-02-06T05:12:14.416Z,98492.94
2023-02-06T05:14:42.039Z,98487.84
2023-02-06T05:17:09.527Z,98488.59
2023-02-06T05:19:37.052Z,98493.34
2023-02-06T05:22:04.793Z,98501.81
2023-02-06T05:24:32.429Z,98492.75
2023-02-06T05:27:00.007Z,98489.53
2023-02-06T05:29:27.781Z,98499.09
2023-02-06T05:31:55.340Z,98494.50
2023-02-06T05:34:22.890Z,98502.16
2023-02-06T05:36:50.405Z,98495.47
2023-02-06T05:39:17.930Z,98498.28
2023-02-06T05:41:45.546Z,98492.19
2023-02-06T05:44:13.056Z,98497.88
2023-02-06T05:46:40.709Z,98499.16
2023-02-06T05:49:08.342Z,98503.38
2023-02-06T05:51:36.254Z,98498.03
2023-02-06T05:54:03.954Z,98500.50
2023-02-06T05:56:31.523Z,98498.03
2023-02-06T05:58:59.348Z,98503.50
2023-02-06T06:01:28.843Z,98502.38
2023-02-06T06:03:56.807Z,98503.03
2023-02-06T06:06:24.372Z,98502.09
2023-02-06T06:08:52.070Z,98503.00
2023-02-06T06:11:19.942Z,98489.91
2023-02-06T06:13:47.446Z,98512.66
2023-02-06T06:16:15.157Z,98502.53
2023-02-06T06:18:42.811Z,98508.38
2023-02-06T06:21:10.463Z,98509.97
2023-02-06T06:23:41.109Z,98511.78
2023-02-06T06:26:08.780Z,98511.00
2023-02-06T06:28:38.847Z,98506.72
2023-02-06T06:31:13.083Z,98517.88
2023-02-06T06:33:41.575Z,98507.97
2023-02-06T06:36:12.896Z,98513.47
2023-02-06T06:38:41.903Z,98515.03
2023-02-06T06:41:09.595Z,98508.72
2023-02-06T06:43:37.560Z,98512.31
2023-02-06T06:46:05.552Z,98504.25
2023-02-06T06:48:33.263Z,98510.06
2023-02-06T06:51:00.756Z,98508.28
2023-02-06T06:53:28.850Z,98501.59
2023-02-06T06:55:56.451Z,98510.78
2023-02-06T06:58:24.081Z,98512.41
2023-02-06T07:00:53.913Z,98515.88
2023-02-06T07:03:21.612Z,98521.69
2023-02-06T07:05:49.972Z,98514.06
2023-02-06T07:08:18.312Z,98510.06
2023-02-06T07:10:45.960Z,98513.91
2023-02-06T07:13:13.527Z,98512.81
2023-02-06T07:15:47.171Z,98516.63
2023-02-06T07:18:14.713Z,98517.06
2023-02-06T07:20:42.354Z,98516.75
2023-02-06T07:23:09.890Z,98514.34
2023-02-06T07:25:37.634Z,98507.75
2023-02-06T07:28:09.307Z,98508.31
2023-02-06T07:30:36.875Z,98513.84
2023-02-06T07:33:11.260Z,98511.22
2023-02-06T07:35:43.304Z,98519.03
2023-02-06T07:39:01.211Z,98496.91
2023-02-06T07:41:54.053Z,98488.00
2023-02-06T07:45:09.422Z,98498.53
2023-02-06T07:47:34.880Z,98515.19
2023-02-06T07:50:04.567Z,98506.22
2023-02-06T07:52:53.081Z,98506.78
2023-02-06T07:55:20.559Z,98513.97
2023-02-06T08:02:05.549Z,98484.78
2023-02-06T08:05:54.533Z,98515.13
2023-02-06T08:08:18.377Z,98505.66
2023-02-06T08:10:49.918Z,98510.28
2023-02-06T08:13:17.837Z,98503.75
2023-02-06T08:15:46.650Z,98506.66
2023-02-06T08:18:17.723Z,98501.91
2023-02-06T08:20:47.534Z,98505.34
2023-02-06T08:23:20.949Z,98512.25
2023-02-06T08:28:31.869Z,98517.19
2023-02-06T08:30:59.521Z,98510.50
2023-02-06T08:33:27.162Z,98508.41
2023-02-06T08:35:54.819Z,98509.09
2023-02-06T08:38:22.449Z,98506.66
2023-02-06T08:40:50.024Z,98511.16
2023-02-06T08:43:17.611Z,98508.69
2023-02-06T08:45:49.911Z,98518.16
2023-02-06T08:48:17.833Z,98500.38
2023-02-06T08:50:47.996Z,98513.22
2023-02-06T08:53:15.593Z,98510.25
2023-02-06T08:55:43.254Z,98509.81
2023-02-06T08:58:10.938Z,98512.84
2023-02-06T09:00:38.865Z,98510.94
2023-02-06T09:03:06.410Z,98514.75
2023-02-06T09:05:34.725Z,98511.31
2023-02-06T09:08:02.489Z,98508.78
2023-02-06T09:10:30.017Z,98514.16
2023-02-06T09:12:58.028Z,98512.56
2023-02-06T09:15:25.809Z,98511.44
2023-02-06T09:17:53.426Z,98513.19
2023-02-06T09:20:21.462Z,98515.22
2023-02-06T09:22:49.184Z,98514.59
2023-02-06T09:25:16.767Z,98513.97
2023-02-06T09:27:47.014Z,98513.97
2023-02-06T09:30:15.519Z,98518.03
2023-02-06T09:32:43.670Z,98518.50
2023-02-06T09:35:11.208Z,98512.03
2023-02-06T09:37:38.936Z,98513.75
2023-02-06T09:40:07.127Z,98511.22
2023-02-06T09:42:38.282Z,98514.41
2023-02-06T09:45:20.123Z,98513.44
2023-02-06T09:47:55.609Z,98503.81
2023-02-06T09:50:44.985Z,98510.09
2023-02-06T09:53:31.501Z,98509.28
2023-02-06T09:56:13.144Z,98510.84
2023-02-06T09:58:59.083Z,98507.16
2023-02-06T10:01:32.323Z,98514.84
2023-02-06T10:04:34.804Z,98512.38
2023-02-06T10:07:31.553Z,98516.28
2023-02-06T10:10:11.634Z,98507.84
2023-02-06T10:12:56.208Z,98510.06
2023-02-06T10:15:36.489Z,98503.72
2023-02-06T10:18:15.368Z,98507.47
2023-02-06T10:20:54.154Z,98506.19
2023-02-06T10:23:26.511Z,98505.19
2023-02-06T10:26:18.674Z,98514.03
2023-02-06T10:28:56.409Z,98510.22
2023-02-06T10:31:26.851Z,98510.00
2023-02-06T10:34:06.683Z,98517.69
2023-02-06T10:37:11.732Z,98520.06
2023-02-06T10:40:08.352Z,98521.00
2023-02-06T10:42:57.638Z,98517.34
2023-02-06T10:46:03.656Z,98521.59
2023-02-06T10:48:39.749Z,98527.47
2023-02-06T10:51:20.290Z,98522.75
2023-02-06T10:53:52.316Z,98535.53
2023-02-06T10:56:26.952Z,98536.34
2023-02-06T10:59:40.251Z,98538.31
2023-02-06T11:02:12.163Z,98540.72
2023-02-06T11:04:42.922Z,98543.03
2023-02-06T11:07:28.908Z,98532.63
2023-02-06T11:09:57.009Z,98541.00
2023-02-06T11:12:27.296Z,98549.97
2023-02-06T11:14:57.907Z,98542.38
2023-02-06T11:17:28.689Z,98551.56
2023-02-06T11:20:03.438Z,98559.00
2023-02-06T11:22:38.879Z,98541.59
2023-02-06T11:25:36.903Z,98541.38
2023-02-06T11:28:14.217Z,98548.72
2023-02-06T11:30:53.754Z,98544.97
2023-02-06T11:33:49.355Z,98550.50
2023-02-06T11:36:38.889Z,98539.81
2023-02-06T11:39:21.567Z,98551.63
2023-02-06T11:46:17.632Z,98546.59
2023-02-06T11:48:57.297Z,98549.44
2023-02-06T11:51:26.640Z,98549.25
2023-02-06T11:54:00.361Z,98542.69
2023-02-06T11:56:29.438Z,98545.06
2023-02-06T11:59:15.625Z,98546.44
2023-02-06T12:01:49.331Z,98552.34
2023-02-06T12:04:39.475Z,98538.25
2023-02-06T12:07:25.462Z,98552.06
2023-02-06T12:09:52.964Z,98553.22
2023-02-06T12:12:31.410Z,98545.69
2023-02-06T12:15:29.524Z,98553.81
2023-02-06T12:18:01.154Z,98552.59
2023-02-06T12:20:35.362Z,98560.47
2023-02-06T12:23:25.104Z,98550.16
2023-02-06T12:25:58.224Z,98548.97
2023-02-06T12:28:36.620Z,98557.03
2023-02-06T12:31:23.652Z,98553.00
2023-02-06T12:33:55.349Z,98559.69
2023-02-06T12:36:28.237Z,98557.63
2023-02-06T12:39:04.783Z,98566.63
2023-02-06T12:41:56.934Z,98570.16
2023-02-06T12:44:53.558Z,98565.09
2023-02-06T12:47:39.288Z,98562.88
2023-02-06T12:50:19.615Z,98569.72
2023-02-06T12:53:10.829Z,98567.72
2023-02-06T12:56:20.791Z,98568.22
2023-02-06T12:59:06.888Z,98577.72
2023-02-06T13:02:26.282Z,98579.16
2023-02-06T13:04:55.217Z,98581.81
2023-02-06T13:07:25.982Z,98585.84
2023-02-06T13:10:01.535Z,98585.63
2023-02-06T13:12:32.696Z,98589.94
2023-02-06T13:15:21.444Z,98584.91
2023-02-06T13:17:50.955Z,98589.22
2023-02-06T13:20:21.386Z,98593.47
2023-02-06T13:22:52.097Z,98585.78
2023-02-06T13:25:25.617Z,98587.34
2023-02-06T13:27:55.045Z,98595.94
2023-02-06T13:30:34.465Z,98591.34
2023-02-06T13:33:17.196Z,98595.59
2023-02-06T13:36:10.049Z,98598.56
2023-02-06T13:38:40.947Z,98597.69
2023-02-06T13:41:18.720Z,98591.53
2023-02-06T13:44:02.084Z,98597.22
2023-02-06T13:46:48.057Z,98612.50
2023-02-06T13:49:53.431Z,98601.56
2023-02-06T13:52:48.134Z,98605.13
2023-02-06T13:55:32.626Z,98606.53
2023-02-06T13:58:24.869Z,98618.97
2023-02-06T14:00:55.229Z,98606.84
2023-02-06T14:03:29.926Z,98607.94
2023-02-06T14:06:19.287Z,98607.94
2023-02-06T14:08:47.965Z,98615.41
2023-02-06T14:11:33.900Z,98615.28
2023-02-06T14:14:28.750Z,98612.19
2023-02-06T14:17:22.923Z,98611.09
2023-02-06T14:20:18.238Z,98607.88
2023-02-06T14:23:21.298Z,98619.06
2023-02-06T14:26:01.467Z,98614.56
2023-02-06T14:29:04.088Z,98625.41
2023-02-06T14:31:40.793Z,98618.09
2023-02-06T14:34:23.488Z,98621.38
2023-02-06T14:37:20.946Z,98629.66
2023-02-06T14:39:54.607Z,98620.09
2023-02-06T14:42:32.086Z,98626.56
2023-02-06T14:45:07.957Z,98627.69
2023-02-06T14:47:42.702Z,98634.81
2023-02-06T14:50:21.499Z,98615.13
2023-02-06T14:52:58.642Z,98631.25
2023-02-06T14:55:46.875Z,98634.66
2023-02-06T14:58:28.139Z,98634.50
2023-02-06T15:01:11.614Z,98632.16
2023-02-06T15:03:40.491Z,98638.84
2023-02-06T15:06:11.581Z,98631.41
2023-02-06T15:08:47.159Z,98636.00
2023-02-06T15:11:26.144Z,98648.06
2023-02-06T15:13:56.575Z,98649.31
2023-02-06T15:16:24.509Z,98653.81
2023-02-06T15:19:28.381Z,98656.88
2023-02-06T15:22:05.465Z,98645.28
2023-02-06T15:24:56.626Z,98656.88
2023-02-06T15:27:35.032Z,98654.38
2023-02-06T15:30:15.685Z,98656.53
2023-02-06T15:32:50.308Z,98656.81
2023-02-06T15:35:45.041Z,98659.25
2023-02-06T15:38:15.853Z,98665.75
2023-02-06T15:40:49.623Z,98658.16
2023-02-06T15:43:26.250Z,98661.88
2023-02-06T15:45:58.006Z,98652.00
2023-02-06T15:48:34.179Z,98659.94
2023-02-06T15:51:26.150Z,98662.50
2023-02-06T15:54:18.267Z,98662.78
2023-02-06T15:56:55.062Z,98658.31
2023-02-06T15:59:25.778Z,98661.31
2023-02-06T16:01:56.562Z,98656.28
2023-02-06T16:04:32.655Z,98667.22
2023-02-06T16:07:07.192Z,98672.50
2023-02-06T16:09:57.242Z,98666.56
2023-02-06T16:12:25.163Z,98672.53
2023-02-06T16:14:57.991Z,98669.56
2023-02-06T16:17:36.873Z,98662.13
2023-02-06T16:20:46.827Z,98668.44
2023-02-06T16:23:20.396Z,98671.69
2023-02-06T16:26:00.212Z,98677.06
2023-02-06T16:28:29.174Z,98667.28
2023-02-06T16:31:03.463Z,98657.22
2023-02-06T16:33:41.128Z,98676.66
2023-02-06T16:36:14.276Z,98681.28
2023-02-06T16:38:48.265Z,98687.72
2023-02-06T16:41:26.172Z,98684.72
2023-02-06T16:43:54.880Z,98684.81
2023-02-06T16:46:22.501Z,98683.28
2023-02-06T16:48:50.341Z,98683.81
2023-02-06T16:51:20.743Z,98676.38
2023-02-06T16:53:49.427Z,98684.94
2023-02-06T16:56:18.305Z,98689.72
2023-02-06T16:58:46.320Z,98683.66
2023-02-06T17:01:25.889Z,98688.94
2023-02-06T17:03:54.127Z,98687.91
2023-02-06T17:06:32.633Z,98689.22
2023-02-06T17:09:04.818Z,98692.72
2023-02-06T17:11:32.878Z,98690.34
2023-02-06T17:14:00.682Z,98691.41
2023-02-06T17:16:31.329Z,98698.88
2023-02-06T17:18:58.983Z,98686.38
2023-02-06T17:21:28.644Z,98689.59
2023-02-06T17:23:56.269Z,98695.44
2023-02-06T17:26:24.062Z,98690.13
2023-02-06T17:28:52.169Z,98691.75
2023-02-06T17:31:19.878Z,98697.88
2023-02-06T17:33:47.887Z,98694.94
2023-02-06T17:36:29.574Z,98707.66
2023-02-06T17:39:01.766Z,98704.50
2023-02-06T17:41:31.056Z,98706.88
2023-02-06T17:43:58.737Z,98706.63
2023-02-06T17:46:26.290Z,98714.06
2023-02-06T17:49:04.032Z,98709.03
2023-02-06T17:51:32.409Z,98713.28
2023-02-06T17:54:25.839Z,98704.50
2023-02-06T17:57:06.958Z,98714.06
2023-02-06T17:59:35.606Z,98706.94
2023-02-06T18:02:03.346Z,98716.22
2023-02-06T18:04:31.024Z,98715.91
2023-02-06T18:06:58.664Z,98704.00
2023-02-06T18:09:27.620Z,98712.50
2023-02-06T18:11:55.285Z,98708.53
2023-02-06T18:14:22.804Z,98709.84
2023-02-06T18:16:50.449Z,98708.00
2023-02-06T18:19:24.140Z,98709.84
2023-02-06T18:21:52.220Z,98714.91
2023-02-06T18:24:19.777Z,98716.25
2023-02-06T18:26:47.548Z,98714.13
2023-02-06T18:29:15.148Z,98722.88
2023-02-06T18:31:42.733Z,98717.84
2023-02-06T18:34:11.355Z,98722.84
2023-02-06T18:36:39.319Z,98722.31
2023-02-06T18:39:07.284Z,98724.44
2023-02-06T18:41:53.180Z,98721.00
2023-02-06T18:44:20.988Z,98729.50
2023-02-06T18:46:48.645Z,98719.94
2023-02-06T18:49:16.602Z,98724.72
2023-02-06T18:51:47.162Z,98723.66
2023-02-06T18:54:14.778Z,98721.81
2023-02-06T18:56:42.441Z,98725.56
2023-02-06T18:59:10.215Z,98726.84
2023-02-06T19:01:37.696Z,98730.59
2023-02-06T19:04:05.381Z,98736.41
2023-02-06T19:06:35.909Z,98735.63
2023-02-06T19:09:07.371Z,98732.69
2023-02-06T19:11:38.654Z,98742.25
2023-02-06T19:14:07.980Z,98744.38
2023-02-06T19:16:38.716Z,98741.47
2023-02-06T19:19:09.561Z,98740.41
2023-02-06T19:21:37.522Z,98747.03
2023-02-06T19:24:06.290Z,98749.16
2023-02-06T19:26:34.433Z,98751.00
2023-02-06T19:29:02.134Z,98752.06
2023-02-06T19:31:29.704Z,98752.59
2023-02-06T19:34:00.658Z,98752.84
2023-02-06T19:36:30.513Z,98746.78
2023-02-06T19:39:01.049Z,98768.50
2023-02-06T19:41:31.580Z,98759.75
2023-02-06T19:44:03.565Z,98771.94
2023-02-06T19:46:31.272Z,98767.69
2023-02-06T19:48:58.888Z,98768.25
2023-02-06T19:51:30.644Z,98769.81
2023-02-06T19:53:59.580Z,98778.59
2023-02-06T19:56:34.899Z,98774.59
2023-02-06T19:59:10.214Z,98780.44
2023-02-06T20:01:37.781Z,98777.25
2023-02-06T20:04:18.894Z,98776.72
2023-02-06T20:06:47.730Z,98776.19
2023-02-06T20:09:16.101Z,98776.72
2023-02-06T20:11:43.671Z,98777.50
2023-02-06T20:14:12.609Z,98779.38
2023-02-06T20:16:41.886Z,98787.06
2023-02-06T20:19:13.551Z,98779.88
2023-02-06T20:21:43.676Z,98781.50
2023-02-06T20:24:22.339Z,98774.59
2023-02-06T20:26:55.641Z,98785.47
2023-02-06T20:29:26.822Z,98776.47
2023-02-06T20:31:55.243Z,98780.97
2023-02-06T20:34:23.696Z,98789.47
2023-02-06T20:36:52.011Z,98787.84
2023-02-06T20:39:20.351Z,98789.19
2023-02-06T20:41:49.841Z,98791.84
2023-02-06T20:44:18.406Z,98792.09
2023-02-06T20:46:47.000Z,98786.53
2023-02-06T20:49:21.159Z,98792.91
2023-02-06T20:51:49.769Z,98791.84
2023-02-06T20:54:18.730Z,98794.78
2023-02-06T20:56:46.595Z,98798.19
2023-02-06T20:59:16.617Z,98797.66
2023-02-06T21:01:44.779Z,98792.91
2023-02-06T21:04:14.878Z,98808.03
2023-02-06T21:06:43.399Z,98807.47
2023-02-06T21:09:11.704Z,98804.03
2023-02-06T21:11:46.111Z,98800.84
2023-02-06T21:14:14.721Z,98798.72
2023-02-06T21:16:44.046Z,98801.91
2023-02-06T21:19:14.668Z,98796.06
2023-02-06T21:21:45.887Z,98806.94
2023-02-06T21:24:14.412Z,98806.38
2023-02-06T21:26:42.183Z,98808.81
2023-02-06T21:29:11.046Z,98810.94
2023-02-06T21:31:39.142Z,98817.81
2023-02-06T21:34:10.033Z,98828.16
2023-02-06T21:36:39.554Z,98825.22
2023-02-06T21:39:07.871Z,98826.56
2023-02-06T21:41:37.107Z,98833.72
2023-02-06T21:44:05.072Z,98832.66
2023-02-06T21:46:33.690Z,98841.66
2023-02-06T21:49:01.462Z,98840.06
2023-02-06T21:51:29.220Z,98840.59
2023-02-06T21:53:57.282Z,98846.69
2023-02-06T21:56:29.220Z,98841.63
2023-02-06T21:58:57.919Z,98850.66
2023-02-06T22:01:30.870Z,98852.81
2023-02-06T22:03:58.614Z,98846.94
2023-02-06T22:06:27.394Z,98847.47
2023-02-06T22:08:56.869Z,98854.09
2023-02-06T22:11:28.317Z,98845.91
2023-02-06T22:14:01.218Z,98835.78
2023-02-06T22:16:29.581Z,98853.84
2023-02-06T22:18:57.757Z,98853.84
2023-02-06T22:21:27.296Z,98855.94
2023-02-06T22:23:58.573Z,98857.81
2023-02-06T22:26:27.456Z,98863.66
2023-02-06T22:28:55.181Z,98858.38
2023-02-06T22:31:25.496Z,98860.50
2023-02-06T22:33:53.449Z,98873.19
2023-02-06T22:36:24.583Z,98871.88
2023-02-06T22:39:06.764Z,98868.69
2023-02-06T22:41:35.955Z,98870.53
2023-02-06T22:44:03.600Z,98870.03
2023-02-06T22:46:34.869Z,98874.00
2023-02-06T22:49:02.716Z,98880.63
2023-02-06T22:51:30.614Z,98875.06
2023-02-06T22:53:58.186Z,98863.66
2023-02-06T22:56:37.580Z,98865.78
2023-02-06T22:59:10.762Z,98872.16
2023-02-06T23:01:45.401Z,98868.72
2023-02-06T23:04:16.051Z,98854.66
2023-02-06T23:06:44.060Z,98869.75
2023-02-06T23:09:24.606Z,98864.97
2023-02-06T23:11:52.964Z,98867.09
2023-02-06T23:14:21.210Z,98860.72
2023-02-06T23:16:49.101Z,98863.88
2023-02-06T23:19:17.744Z,98868.41
2023-02-06T23:21:47.932Z,98868.41
2023-02-06T23:24:16.475Z,98872.63
2023-02-06T23:26:46.226Z,98870.25
2023-02-06T23:29:17.629Z,98865.44
2023-02-06T23:31:47.276Z,98868.91
2023-02-06T23:34:15.906Z,98872.91
2023-02-06T23:36:45.591Z,98877.44
2023-02-06T23:39:13.474Z,98874.19
2023-02-06T23:41:41.148Z,98867.03
2023-02-06T23:44:10.647Z,98867.03
2023-02-06T23:46:39.977Z,98867.03
2023-02-06T23:49:08.568Z,98872.06
2023-02-06T23:51:38.252Z,98864.91
2023-02-06T23:54:07.788Z,98866.50
2023-02-06T23:56:35.845Z,98866.50
2023-02-06T23:59:05.488Z,98868.09
